ENKR/KKN METAR and TAF weather

Enter ICAO airport designator
Station Type Date Time Source
ENKR METAR 2018/10/16 20:50 UTC NOAA

ENKR 162050Z 25005KT CAVOK 02/M00 Q1011 RMK WIND 731FT 25016KT


Station Type Date Time Source
ENKR Decoded METAR 2018/10/16 20:50 UTC NOAA

Kirkenes Lufthavn, Norway (ENKR) 69-44N 029-54E 91M
Oct 16, 2018 - 04:50 PM EDT / 2018.10.16 2050 UTC
Wind: from the WSW (250 degrees) at 6 MPH (5 KT):0
Visibility: greater than 7 mile(s):0
Temperature: 35 F (2 C)
Windchill: 30 F (-1 C):1
Dew Point: 32 F (0 C)
Relative Humidity: 86%
Pressure (altimeter): 29.85 in. Hg (1011 hPa)
ob: ENKR 162050Z 25005KT CAVOK 02/M00 Q1011 RMK WIND 731FT 25016KT
cycle: 21

Station Type Date Time Source
ENKR TAF 2017/08/31 21:36 UTC NOAA

TAF TAF ENKR 312300Z 3121/0109 29005KT 9999 FEW020 SCT040


Example: see airport list